sensor_id;sensor_type;location;lat;lon;timestamp;temperature;humidity
56729;DHT22;42612;52.232;7.560;2022-11-14T00:01:56;12.30;52.70
56729;DHT22;42612;52.232;7.560;2022-11-14T00:04:21;12.20;52.80
56729;DHT22;42612;52.232;7.560;2022-11-14T00:06:47;12.20;52.70
56729;DHT22;42612;52.232;7.560;2022-11-14T00:09:12;12.20;52.70
56729;DHT22;42612;52.232;7.560;2022-11-14T00:11:38;12.20;52.80
56729;DHT22;42612;52.232;7.560;2022-11-14T00:14:04;12.20;52.80
56729;DHT22;42612;52.232;7.560;2022-11-14T00:16:29;12.20;52.90
56729;DHT22;42612;52.232;7.560;2022-11-14T00:18:55;12.20;52.90
56729;DHT22;42612;52.232;7.560;2022-11-14T00:21:20;12.20;52.90
56729;DHT22;42612;52.232;7.560;2022-11-14T00:23:46;12.10;52.90
56729;DHT22;42612;52.232;7.560;2022-11-14T00:26:11;12.10;52.90
56729;DHT22;42612;52.232;7.560;2022-11-14T00:28:37;12.10;52.90
56729;DHT22;42612;52.232;7.560;2022-11-14T00:31:03;12.10;53.00
56729;DHT22;42612;52.232;7.560;2022-11-14T00:33:28;12.10;53.00
56729;DHT22;42612;52.232;7.560;2022-11-14T00:35:54;12.10;53.00
56729;DHT22;42612;52.232;7.560;2022-11-14T00:38:21;12.10;53.00
56729;DHT22;42612;52.232;7.560;2022-11-14T00:40:47;12.10;53.00
56729;DHT22;42612;52.232;7.560;2022-11-14T00:43:12;12.10;53.00
56729;DHT22;42612;52.232;7.560;2022-11-14T00:45:38;12.10;52.90
56729;DHT22;42612;52.232;7.560;2022-11-14T00:48:04;12.10;52.90
56729;DHT22;42612;52.232;7.560;2022-11-14T00:50:29;12.00;52.80
56729;DHT22;42612;52.232;7.560;2022-11-14T00:52:55;12.00;52.80
56729;DHT22;42612;52.232;7.560;2022-11-14T00:55:20;12.00;52.80
56729;DHT22;42612;52.232;7.560;2022-11-14T00:57:46;12.00;52.90
56729;DHT22;42612;52.232;7.560;2022-11-14T01:00:12;12.00;53.00
56729;DHT22;42612;52.232;7.560;2022-11-14T01:02:38;12.00;53.00
56729;DHT22;42612;52.232;7.560;2022-11-14T01:05:04;12.00;53.00
56729;DHT22;42612;52.232;7.560;2022-11-14T01:07:30;12.00;53.00
56729;DHT22;42612;52.232;7.560;2022-11-14T01:09:55;11.90;53.00
56729;DHT22;42612;52.232;7.560;2022-11-14T01:12:21;11.90;53.00
56729;DHT22;42612;52.232;7.560;2022-11-14T01:14:46;11.90;53.00
56729;DHT22;42612;52.232;7.560;2022-11-14T01:17:12;11.90;53.00
56729;DHT22;42612;52.232;7.560;2022-11-14T01:19:38;11.90;53.00
56729;DHT22;42612;52.232;7.560;2022-11-14T01:22:03;11.90;53.00
56729;DHT22;42612;52.232;7.560;2022-11-14T01:24:30;11.90;53.00
56729;DHT22;42612;52.232;7.560;2022-11-14T01:26:57;11.90;53.00
56729;DHT22;42612;52.232;7.560;2022-11-14T01:29:22;11.90;52.90
56729;DHT22;42612;52.232;7.560;2022-11-14T01:31:48;11.90;52.90
56729;DHT22;42612;52.232;7.560;2022-11-14T01:34:13;11.80;52.90
56729;DHT22;42612;52.232;7.560;2022-11-14T01:36:39;11.90;52.90
56729;DHT22;42612;52.232;7.560;2022-11-14T01:39:04;11.80;52.90
56729;DHT22;42612;52.232;7.560;2022-11-14T01:41:30;11.80;53.00
56729;DHT22;42612;52.232;7.560;2022-11-14T01:43:55;11.80;53.00
56729;DHT22;42612;52.232;7.560;2022-11-14T01:46:22;11.80;53.00
56729;DHT22;42612;52.232;7.560;2022-11-14T01:51:46;11.80;53.00
56729;DHT22;42612;52.232;7.560;2022-11-14T01:55:00;11.80;53.00
56729;DHT22;42612;52.232;7.560;2022-11-14T01:57:07;11.80;53.00
56729;DHT22;42612;52.232;7.560;2022-11-14T01:59:37;11.80;53.00
56729;DHT22;42612;52.232;7.560;2022-11-14T02:02:06;11.80;53.00
56729;DHT22;42612;52.232;7.560;2022-11-14T02:04:38;11.70;52.90
56729;DHT22;42612;52.232;7.560;2022-11-14T02:07:07;11.70;52.90
56729;DHT22;42612;52.232;7.560;2022-11-14T02:09:34;11.70;52.90
56729;DHT22;42612;52.232;7.560;2022-11-14T02:12:01;11.70;52.90
56729;DHT22;42612;52.232;7.560;2022-11-14T02:14:29;11.60;52.90
56729;DHT22;42612;52.232;7.560;2022-11-14T02:16:55;11.60;52.90
56729;DHT22;42612;52.232;7.560;2022-11-14T02:19:20;11.60;52.90
56729;DHT22;42612;52.232;7.560;2022-11-14T02:21:46;11.60;52.90
56729;DHT22;42612;52.232;7.560;2022-11-14T02:24:12;11.60;53.00
56729;DHT22;42612;52.232;7.560;2022-11-14T02:26:38;11.60;53.10
56729;DHT22;42612;52.232;7.560;2022-11-14T02:29:05;11.60;53.10
56729;DHT22;42612;52.232;7.560;2022-11-14T02:31:32;11.60;53.10
56729;DHT22;42612;52.232;7.560;2022-11-14T02:33:58;11.60;53.20
56729;DHT22;42612;52.232;7.560;2022-11-14T02:36:23;11.60;53.90
56729;DHT22;42612;52.232;7.560;2022-11-14T02:38:49;11.60;53.20
56729;DHT22;42612;52.232;7.560;2022-11-14T02:41:14;11.60;53.30
56729;DHT22;42612;52.232;7.560;2022-11-14T02:43:40;11.60;53.20
56729;DHT22;42612;52.232;7.560;2022-11-14T02:46:06;11.60;53.20
56729;DHT22;42612;52.232;7.560;2022-11-14T02:48:31;11.60;53.20
56729;DHT22;42612;52.232;7.560;2022-11-14T02:50:57;11.60;53.20
56729;DHT22;42612;52.232;7.560;2022-11-14T02:53:22;11.60;53.10
56729;DHT22;42612;52.232;7.560;2022-11-14T02:55:48;11.60;53.10
56729;DHT22;42612;52.232;7.560;2022-11-14T02:58:13;11.60;53.10
56729;DHT22;42612;52.232;7.560;2022-11-14T03:00:39;11.50;53.00
56729;DHT22;42612;52.232;7.560;2022-11-14T03:03:05;11.50;53.00
56729;DHT22;42612;52.232;7.560;2022-11-14T03:05:30;11.50;53.10
56729;DHT22;42612;52.232;7.560;2022-11-14T03:07:56;11.50;53.00
56729;DHT22;42612;52.232;7.560;2022-11-14T03:10:22;11.50;53.10
56729;DHT22;42612;52.232;7.560;2022-11-14T03:12:51;11.50;53.10
56729;DHT22;42612;52.232;7.560;2022-11-14T03:15:18;11.50;53.10
56729;DHT22;42612;52.232;7.560;2022-11-14T03:17:43;11.50;53.90
56729;DHT22;42612;52.232;7.560;2022-11-14T03:20:09;11.40;53.10
56729;DHT22;42612;52.232;7.560;2022-11-14T03:22:35;11.50;53.30
56729;DHT22;42612;52.232;7.560;2022-11-14T03:25:00;11.50;53.30
56729;DHT22;42612;52.232;7.560;2022-11-14T03:27:26;11.40;53.30
56729;DHT22;42612;52.232;7.560;2022-11-14T03:29:51;11.50;53.30
56729;DHT22;42612;52.232;7.560;2022-11-14T03:32:17;11.50;53.40
56729;DHT22;42612;52.232;7.560;2022-11-14T03:34:42;11.50;53.30
56729;DHT22;42612;52.232;7.560;2022-11-14T03:37:08;11.40;53.20
56729;DHT22;42612;52.232;7.560;2022-11-14T03:39:34;11.50;53.30
56729;DHT22;42612;52.232;7.560;2022-11-14T03:41:59;11.50;53.30
56729;DHT22;42612;52.232;7.560;2022-11-14T03:44:25;11.40;53.20
56729;DHT22;42612;52.232;7.560;2022-11-14T03:46:51;11.40;53.30
56729;DHT22;42612;52.232;7.560;2022-11-14T03:49:17;11.40;53.20
56729;DHT22;42612;52.232;7.560;2022-11-14T03:51:42;11.40;53.20
56729;DHT22;42612;52.232;7.560;2022-11-14T03:54:08;11.40;53.10
56729;DHT22;42612;52.232;7.560;2022-11-14T03:56:33;11.40;53.20
56729;DHT22;42612;52.232;7.560;2022-11-14T03:58:59;11.40;53.10
56729;DHT22;42612;52.232;7.560;2022-11-14T04:01:25;11.40;53.20
56729;DHT22;42612;52.232;7.560;2022-11-14T04:03:52;11.40;53.20
56729;DHT22;42612;52.232;7.560;2022-11-14T04:06:17;11.30;53.20
56729;DHT22;42612;52.232;7.560;2022-11-14T04:08:43;11.30;53.10
56729;DHT22;42612;52.232;7.560;2022-11-14T04:11:08;11.30;53.10
56729;DHT22;42612;52.232;7.560;2022-11-14T04:13:34;11.30;53.00
56729;DHT22;42612;52.232;7.560;2022-11-14T04:16:00;11.30;53.00
56729;DHT22;42612;52.232;7.560;2022-11-14T04:18:25;11.30;53.00
56729;DHT22;42612;52.232;7.560;2022-11-14T04:20:51;11.20;53.00
56729;DHT22;42612;52.232;7.560;2022-11-14T04:23:17;11.20;53.00
56729;DHT22;42612;52.232;7.560;2022-11-14T04:25:43;11.20;53.00
56729;DHT22;42612;52.232;7.560;2022-11-14T04:28:09;11.20;53.10
56729;DHT22;42612;52.232;7.560;2022-11-14T04:30:35;11.20;53.20
56729;DHT22;42612;52.232;7.560;2022-11-14T04:33:01;11.20;53.30
56729;DHT22;42612;52.232;7.560;2022-11-14T04:35:26;11.20;53.40
56729;DHT22;42612;52.232;7.560;2022-11-14T04:37:52;11.20;53.40
56729;DHT22;42612;52.232;7.560;2022-11-14T04:40:17;11.20;53.40
56729;DHT22;42612;52.232;7.560;2022-11-14T04:42:43;11.20;53.40
56729;DHT22;42612;52.232;7.560;2022-11-14T04:45:09;11.20;53.50
56729;DHT22;42612;52.232;7.560;2022-11-14T04:47:35;11.20;53.50
56729;DHT22;42612;52.232;7.560;2022-11-14T04:50:00;11.20;53.50
56729;DHT22;42612;52.232;7.560;2022-11-14T04:52:26;11.20;53.50
56729;DHT22;42612;52.232;7.560;2022-11-14T04:54:52;11.20;53.50
56729;DHT22;42612;52.232;7.560;2022-11-14T04:57:18;11.20;53.60
56729;DHT22;42612;52.232;7.560;2022-11-14T04:59:43;11.20;53.70
56729;DHT22;42612;52.232;7.560;2022-11-14T05:02:09;11.20;53.60
56729;DHT22;42612;52.232;7.560;2022-11-14T05:04:34;11.20;53.60
56729;DHT22;42612;52.232;7.560;2022-11-14T05:07:00;11.20;53.50
56729;DHT22;42612;52.232;7.560;2022-11-14T05:09:26;11.20;53.50
56729;DHT22;42612;52.232;7.560;2022-11-14T05:11:51;11.20;53.50
56729;DHT22;42612;52.232;7.560;2022-11-14T05:14:17;11.30;53.60
56729;DHT22;42612;52.232;7.560;2022-11-14T05:16:42;11.30;53.50
56729;DHT22;42612;52.232;7.560;2022-11-14T05:19:08;11.30;53.50
56729;DHT22;42612;52.232;7.560;2022-11-14T05:21:34;11.30;53.40
56729;DHT22;42612;52.232;7.560;2022-11-14T05:23:59;11.30;53.40
56729;DHT22;42612;52.232;7.560;2022-11-14T05:26:25;11.20;53.20
56729;DHT22;42612;52.232;7.560;2022-11-14T05:28:50;11.20;53.20
56729;DHT22;42612;52.232;7.560;2022-11-14T05:31:16;11.20;53.30
56729;DHT22;42612;52.232;7.560;2022-11-14T05:33:42;11.20;53.30
56729;DHT22;42612;52.232;7.560;2022-11-14T05:36:09;11.20;53.30
56729;DHT22;42612;52.232;7.560;2022-11-14T05:38:36;11.20;53.30
56729;DHT22;42612;52.232;7.560;2022-11-14T05:41:05;11.20;53.30
56729;DHT22;42612;52.232;7.560;2022-11-14T05:43:32;11.10;53.30
56729;DHT22;42612;52.232;7.560;2022-11-14T05:46:01;11.10;53.20
56729;DHT22;42612;52.232;7.560;2022-11-14T05:48:29;11.10;53.10
56729;DHT22;42612;52.232;7.560;2022-11-14T05:50:55;11.10;53.10
56729;DHT22;42612;52.232;7.560;2022-11-14T05:53:21;11.00;53.00
56729;DHT22;42612;52.232;7.560;2022-11-14T05:55:47;11.00;53.00
56729;DHT22;42612;52.232;7.560;2022-11-14T05:58:12;11.00;53.00
56729;DHT22;42612;52.232;7.560;2022-11-14T06:00:38;11.00;53.10
56729;DHT22;42612;52.232;7.560;2022-11-14T06:03:03;11.00;53.10
56729;DHT22;42612;52.232;7.560;2022-11-14T06:05:29;10.90;53.00
56729;DHT22;42612;52.232;7.560;2022-11-14T06:07:55;10.90;53.20
56729;DHT22;42612;52.232;7.560;2022-11-14T06:10:22;10.90;53.00
56729;DHT22;42612;52.232;7.560;2022-11-14T06:12:47;10.80;52.90
56729;DHT22;42612;52.232;7.560;2022-11-14T06:15:13;10.80;52.90
56729;DHT22;42612;52.232;7.560;2022-11-14T06:17:39;10.80;53.00
56729;DHT22;42612;52.232;7.560;2022-11-14T06:20:04;10.80;53.00
56729;DHT22;42612;52.232;7.560;2022-11-14T06:22:30;10.70;53.00
56729;DHT22;42612;52.232;7.560;2022-11-14T06:24:57;10.70;53.00
56729;DHT22;42612;52.232;7.560;2022-11-14T06:27:23;10.70;53.00
56729;DHT22;42612;52.232;7.560;2022-11-14T06:29:48;10.60;53.00
56729;DHT22;42612;52.232;7.560;2022-11-14T06:32:14;10.60;53.00
56729;DHT22;42612;52.232;7.560;2022-11-14T06:34:39;10.60;53.00
56729;DHT22;42612;52.232;7.560;2022-11-14T06:37:05;10.50;53.10
56729;DHT22;42612;52.232;7.560;2022-11-14T06:39:30;10.50;53.10
56729;DHT22;42612;52.232;7.560;2022-11-14T06:41:56;10.50;53.20
56729;DHT22;42612;52.232;7.560;2022-11-14T06:44:22;10.50;53.30
56729;DHT22;42612;52.232;7.560;2022-11-14T06:46:47;10.50;53.30
56729;DHT22;42612;52.232;7.560;2022-11-14T06:49:13;10.50;53.40
56729;DHT22;42612;52.232;7.560;2022-11-14T06:51:39;10.50;53.50
56729;DHT22;42612;52.232;7.560;2022-11-14T06:54:04;10.50;53.50
56729;DHT22;42612;52.232;7.560;2022-11-14T06:56:30;10.50;53.60
56729;DHT22;42612;52.232;7.560;2022-11-14T06:58:55;10.50;53.50
56729;DHT22;42612;52.232;7.560;2022-11-14T07:01:22;10.50;53.50
56729;DHT22;42612;52.232;7.560;2022-11-14T07:03:50;10.50;53.60
56729;DHT22;42612;52.232;7.560;2022-11-14T07:06:20;10.50;53.60
56729;DHT22;42612;52.232;7.560;2022-11-14T07:08:47;10.50;53.50
56729;DHT22;42612;52.232;7.560;2022-11-14T07:11:14;10.50;53.50
56729;DHT22;42612;52.232;7.560;2022-11-14T07:13:53;10.50;53.50
56729;DHT22;42612;52.232;7.560;2022-11-14T07:16:24;10.50;53.50
56729;DHT22;42612;52.232;7.560;2022-11-14T07:18:53;10.50;53.30
56729;DHT22;42612;52.232;7.560;2022-11-14T07:21:19;10.50;53.20
56729;DHT22;42612;52.232;7.560;2022-11-14T07:23:45;10.50;53.10
56729;DHT22;42612;52.232;7.560;2022-11-14T07:26:11;10.50;53.10
56729;DHT22;42612;52.232;7.560;2022-11-14T07:28:38;10.40;53.00
56729;DHT22;42612;52.232;7.560;2022-11-14T07:31:05;10.40;53.00
56729;DHT22;42612;52.232;7.560;2022-11-14T07:33:32;10.40;53.00
56729;DHT22;42612;52.232;7.560;2022-11-14T07:35:57;10.40;52.90
56729;DHT22;42612;52.232;7.560;2022-11-14T07:38:23;10.30;52.80
56729;DHT22;42612;52.232;7.560;2022-11-14T07:40:59;10.30;52.80
56729;DHT22;42612;52.232;7.560;2022-11-14T07:43:26;10.30;53.60
56729;DHT22;42612;52.232;7.560;2022-11-14T07:45:52;10.20;53.00
56729;DHT22;42612;52.232;7.560;2022-11-14T07:48:18;10.20;53.10
56729;DHT22;42612;52.232;7.560;2022-11-14T07:50:46;10.20;53.30
56729;DHT22;42612;52.232;7.560;2022-11-14T07:53:12;10.10;53.20
56729;DHT22;42612;52.232;7.560;2022-11-14T07:55:37;10.10;53.30
56729;DHT22;42612;52.232;7.560;2022-11-14T07:58:03;10.10;53.30
56729;DHT22;42612;52.232;7.560;2022-11-14T08:00:29;10.10;53.40
56729;DHT22;42612;52.232;7.560;2022-11-14T08:02:55;10.10;53.40
56729;DHT22;42612;52.232;7.560;2022-11-14T08:05:21;10.10;53.40
56729;DHT22;42612;52.232;7.560;2022-11-14T08:07:49;10.10;53.50
56729;DHT22;42612;52.232;7.560;2022-11-14T08:10:16;10.10;53.40
56729;DHT22;42612;52.232;7.560;2022-11-14T08:12:42;10.10;53.50
56729;DHT22;42612;52.232;7.560;2022-11-14T08:15:09;10.10;53.70
56729;DHT22;42612;52.232;7.560;2022-11-14T08:17:35;10.10;53.60
56729;DHT22;42612;52.232;7.560;2022-11-14T08:20:02;10.10;53.60
56729;DHT22;42612;52.232;7.560;2022-11-14T08:22:28;10.10;53.60
56729;DHT22;42612;52.232;7.560;2022-11-14T08:24:55;10.20;53.60
56729;DHT22;42612;52.232;7.560;2022-11-14T08:27:21;10.20;53.80
56729;DHT22;42612;52.232;7.560;2022-11-14T08:29:47;10.20;53.80
56729;DHT22;42612;52.232;7.560;2022-11-14T08:32:12;10.20;53.80
56729;DHT22;42612;52.232;7.560;2022-11-14T08:34:39;10.20;53.80
56729;DHT22;42612;52.232;7.560;2022-11-14T08:37:05;10.20;53.80
56729;DHT22;42612;52.232;7.560;2022-11-14T08:39:30;10.30;54.00
56729;DHT22;42612;52.232;7.560;2022-11-14T08:41:56;10.30;54.10
56729;DHT22;42612;52.232;7.560;2022-11-14T08:44:22;10.30;54.40
56729;DHT22;42612;52.232;7.560;2022-11-14T08:46:48;10.30;54.40
56729;DHT22;42612;52.232;7.560;2022-11-14T08:49:15;10.30;54.50
56729;DHT22;42612;52.232;7.560;2022-11-14T08:51:41;10.40;54.60
56729;DHT22;42612;52.232;7.560;2022-11-14T08:54:06;10.50;54.70
56729;DHT22;42612;52.232;7.560;2022-11-14T08:56:32;10.50;54.80
56729;DHT22;42612;52.232;7.560;2022-11-14T08:58:57;10.60;54.80
56729;DHT22;42612;52.232;7.560;2022-11-14T09:01:24;10.60;54.80
56729;DHT22;42612;52.232;7.560;2022-11-14T09:03:49;10.70;54.80
56729;DHT22;42612;52.232;7.560;2022-11-14T09:06:15;10.80;54.90
56729;DHT22;42612;52.232;7.560;2022-11-14T09:08:40;10.80;54.80
56729;DHT22;42612;52.232;7.560;2022-11-14T09:11:06;10.90;54.90
56729;DHT22;42612;52.232;7.560;2022-11-14T09:13:32;10.90;54.90
56729;DHT22;42612;52.232;7.560;2022-11-14T09:15:58;11.00;54.90
56729;DHT22;42612;52.232;7.560;2022-11-14T09:18:24;11.10;55.00
56729;DHT22;42612;52.232;7.560;2022-11-14T09:20:49;11.10;54.90
56729;DHT22;42612;52.232;7.560;2022-11-14T09:23:15;11.20;54.90
56729;DHT22;42612;52.232;7.560;2022-11-14T09:25:41;11.20;55.00
56729;DHT22;42612;52.232;7.560;2022-11-14T09:28:06;11.30;55.00
56729;DHT22;42612;52.232;7.560;2022-11-14T09:30:33;11.40;55.00
56729;DHT22;42612;52.232;7.560;2022-11-14T09:33:00;11.40;54.90
56729;DHT22;42612;52.232;7.560;2022-11-14T09:35:27;11.40;54.90
56729;DHT22;42612;52.232;7.560;2022-11-14T09:38:04;11.50;54.90
56729;DHT22;42612;52.232;7.560;2022-11-14T09:40:31;11.60;55.00
56729;DHT22;42612;52.232;7.560;2022-11-14T09:43:23;11.60;55.00
56729;DHT22;42612;52.232;7.560;2022-11-14T09:45:51;11.70;55.00
56729;DHT22;42612;52.232;7.560;2022-11-14T09:48:17;11.80;55.00
56729;DHT22;42612;52.232;7.560;2022-11-14T09:50:50;11.80;54.90
56729;DHT22;42612;52.232;7.560;2022-11-14T09:53:28;11.90;55.00
56729;DHT22;42612;52.232;7.560;2022-11-14T09:56:01;12.00;54.90
56729;DHT22;42612;52.232;7.560;2022-11-14T09:58:26;12.00;54.80
56729;DHT22;42612;52.232;7.560;2022-11-14T10:00:57;12.10;54.80
56729;DHT22;42612;52.232;7.560;2022-11-14T10:03:31;12.10;54.80
56729;DHT22;42612;52.232;7.560;2022-11-14T10:06:07;12.20;54.90
56729;DHT22;42612;52.232;7.560;2022-11-14T10:08:53;12.30;54.90
56729;DHT22;42612;52.232;7.560;2022-11-14T10:16:41;12.50;54.90
56729;DHT22;42612;52.232;7.560;2022-11-14T10:19:38;12.60;54.80
56729;DHT22;42612;52.232;7.560;2022-11-14T10:22:10;12.70;54.80
56729;DHT22;42612;52.232;7.560;2022-11-14T10:24:49;12.80;54.70
56729;DHT22;42612;52.232;7.560;2022-11-14T10:27:45;12.80;54.60
56729;DHT22;42612;52.232;7.560;2022-11-14T10:30:21;12.90;54.60
56729;DHT22;42612;52.232;7.560;2022-11-14T10:35:20;13.10;54.40
56729;DHT22;42612;52.232;7.560;2022-11-14T10:37:59;13.10;54.30
56729;DHT22;42612;52.232;7.560;2022-11-14T10:40:30;13.20;54.30
56729;DHT22;42612;52.232;7.560;2022-11-14T10:43:47;13.30;54.30
56729;DHT22;42612;52.232;7.560;2022-11-14T10:48:40;13.40;54.20
56729;DHT22;42612;52.232;7.560;2022-11-14T10:56:45;13.70;54.20
56729;DHT22;42612;52.232;7.560;2022-11-14T10:59:12;13.80;54.20
56729;DHT22;42612;52.232;7.560;2022-11-14T11:01:39;13.90;54.10
56729;DHT22;42612;52.232;7.560;2022-11-14T11:06:48;14.00;53.90
56729;DHT22;42612;52.232;7.560;2022-11-14T11:09:17;14.10;53.80
56729;DHT22;42612;52.232;7.560;2022-11-14T11:12:02;14.20;53.70
56729;DHT22;42612;52.232;7.560;2022-11-14T11:14:30;14.30;53.60
56729;DHT22;42612;52.232;7.560;2022-11-14T11:19:37;14.50;53.50
56729;DHT22;42612;52.232;7.560;2022-11-14T11:22:03;14.50;53.50
56729;DHT22;42612;52.232;7.560;2022-11-14T11:24:36;14.60;53.10
56729;DHT22;42612;52.232;7.560;2022-11-14T11:29:38;14.70;53.00
56729;DHT22;42612;52.232;7.560;2022-11-14T11:32:04;14.80;53.10
56729;DHT22;42612;52.232;7.560;2022-11-14T11:34:30;14.90;53.20
56729;DHT22;42612;52.232;7.560;2022-11-14T11:37:03;15.00;53.10
56729;DHT22;42612;52.232;7.560;2022-11-14T11:39:36;15.00;52.90
56729;DHT22;42612;52.232;7.560;2022-11-14T11:42:07;15.10;52.40
56729;DHT22;42612;52.232;7.560;2022-11-14T11:44:39;15.20;53.20
56729;DHT22;42612;52.232;7.560;2022-11-14T11:47:15;15.20;52.30
56729;DHT22;42612;52.232;7.560;2022-11-14T11:49:43;15.30;52.40
56729;DHT22;42612;52.232;7.560;2022-11-14T11:52:25;15.30;52.50
56729;DHT22;42612;52.232;7.560;2022-11-14T11:57:27;15.50;52.40
56729;DHT22;42612;52.232;7.560;2022-11-14T12:00:05;15.50;52.30
56729;DHT22;42612;52.232;7.560;2022-11-14T12:02:40;15.60;52.40
56729;DHT22;42612;52.232;7.560;2022-11-14T12:05:09;15.60;52.30
56729;DHT22;42612;52.232;7.560;2022-11-14T12:07:56;15.70;52.30
56729;DHT22;42612;52.232;7.560;2022-11-14T12:10:26;15.80;52.30
56729;DHT22;42612;52.232;7.560;2022-11-14T12:21:15;16.00;51.00
56729;DHT22;42612;52.232;7.560;2022-11-14T12:24:22;16.00;51.30
56729;DHT22;42612;52.232;7.560;2022-11-14T12:32:37;16.10;51.40
56729;DHT22;42612;52.232;7.560;2022-11-14T12:35:20;16.20;50.60
56729;DHT22;42612;52.232;7.560;2022-11-14T12:37:49;16.20;50.80
56729;DHT22;42612;52.232;7.560;2022-11-14T12:40:49;16.20;50.60
56729;DHT22;42612;52.232;7.560;2022-11-14T12:43:31;16.30;50.50
56729;DHT22;42612;52.232;7.560;2022-11-14T12:45:59;16.30;50.60
56729;DHT22;42612;52.232;7.560;2022-11-14T12:50:57;16.40;50.70
56729;DHT22;42612;52.232;7.560;2022-11-14T13:04:36;16.60;50.70
56729;DHT22;42612;52.232;7.560;2022-11-14T13:09:53;16.70;50.70
56729;DHT22;42612;52.232;7.560;2022-11-14T13:15:52;16.90;50.60
56729;DHT22;42612;52.232;7.560;2022-11-14T13:22:16;17.00;50.70
56729;DHT22;42612;52.232;7.560;2022-11-14T13:27:32;17.10;50.40
56729;DHT22;42612;52.232;7.560;2022-11-14T13:29:59;17.20;50.30
56729;DHT22;42612;52.232;7.560;2022-11-14T13:35:15;17.20;50.20
56729;DHT22;42612;52.232;7.560;2022-11-14T13:37:47;17.30;51.00
56729;DHT22;42612;52.232;7.560;2022-11-14T13:40:50;17.30;50.20
56729;DHT22;42612;52.232;7.560;2022-11-14T13:48:54;17.40;49.50
56729;DHT22;42612;52.232;7.560;2022-11-14T13:51:25;17.40;49.90
56729;DHT22;42612;52.232;7.560;2022-11-14T13:53:53;17.30;49.90
56729;DHT22;42612;52.232;7.560;2022-11-14T13:56:33;17.40;49.70
56729;DHT22;42612;52.232;7.560;2022-11-14T14:10:32;17.40;49.70
56729;DHT22;42612;52.232;7.560;2022-11-14T14:13:13;17.40;49.70
56729;DHT22;42612;52.232;7.560;2022-11-14T14:15:58;17.40;49.90
56729;DHT22;42612;52.232;7.560;2022-11-14T14:21:34;17.30;49.90
56729;DHT22;42612;52.232;7.560;2022-11-14T14:24:29;17.30;49.80
56729;DHT22;42612;52.232;7.560;2022-11-14T14:27:22;17.30;49.80
56729;DHT22;42612;52.232;7.560;2022-11-14T14:30:12;17.30;49.80
56729;DHT22;42612;52.232;7.560;2022-11-14T14:32:39;17.20;49.80
56729;DHT22;42612;52.232;7.560;2022-11-14T14:35:26;17.20;49.80
56729;DHT22;42612;52.232;7.560;2022-11-14T14:37:54;17.20;49.70
56729;DHT22;42612;52.232;7.560;2022-11-14T14:40:21;17.10;49.80
56729;DHT22;42612;52.232;7.560;2022-11-14T14:42:51;17.10;49.70
56729;DHT22;42612;52.232;7.560;2022-11-14T14:45:18;17.00;49.80
56729;DHT22;42612;52.232;7.560;2022-11-14T14:47:45;17.00;50.00
56729;DHT22;42612;52.232;7.560;2022-11-14T14:50:15;17.00;50.00
56729;DHT22;42612;52.232;7.560;2022-11-14T14:52:44;16.90;50.00
56729;DHT22;42612;52.232;7.560;2022-11-14T15:01:13;16.80;49.90
56729;DHT22;42612;52.232;7.560;2022-11-14T15:03:39;16.80;50.00
56729;DHT22;42612;52.232;7.560;2022-11-14T15:06:27;16.70;49.80
56729;DHT22;42612;52.232;7.560;2022-11-14T15:08:59;16.70;49.90
56729;DHT22;42612;52.232;7.560;2022-11-14T15:11:25;16.60;49.90
56729;DHT22;42612;52.232;7.560;2022-11-14T15:13:53;16.50;50.00
56729;DHT22;42612;52.232;7.560;2022-11-14T15:16:21;16.40;50.00
56729;DHT22;42612;52.232;7.560;2022-11-14T15:18:47;16.40;50.00
56729;DHT22;42612;52.232;7.560;2022-11-14T15:21:15;16.30;50.10
56729;DHT22;42612;52.232;7.560;2022-11-14T15:26:36;16.20;50.00
56729;DHT22;42612;52.232;7.560;2022-11-14T15:29:06;16.20;50.10
56729;DHT22;42612;52.232;7.560;2022-11-14T15:31:43;16.10;50.10
56729;DHT22;42612;52.232;7.560;2022-11-14T15:34:23;16.10;50.20
56729;DHT22;42612;52.232;7.560;2022-11-14T15:39:34;16.00;50.30
56729;DHT22;42612;52.232;7.560;2022-11-14T15:42:19;15.90;50.30
56729;DHT22;42612;52.232;7.560;2022-11-14T15:44:53;15.90;50.30
56729;DHT22;42612;52.232;7.560;2022-11-14T15:47:21;15.90;50.30
56729;DHT22;42612;52.232;7.560;2022-11-14T15:50:18;15.80;50.30
56729;DHT22;42612;52.232;7.560;2022-11-14T15:52:47;15.80;50.40
56729;DHT22;42612;52.232;7.560;2022-11-14T15:55:16;15.70;50.30
56729;DHT22;42612;52.232;7.560;2022-11-14T15:57:43;15.70;50.30
56729;DHT22;42612;52.232;7.560;2022-11-14T16:00:12;15.70;50.40
56729;DHT22;42612;52.232;7.560;2022-11-14T16:02:56;15.60;50.20
56729;DHT22;42612;52.232;7.560;2022-11-14T16:05:26;15.60;50.30
56729;DHT22;42612;52.232;7.560;2022-11-14T16:07:54;15.60;50.40
56729;DHT22;42612;52.232;7.560;2022-11-14T16:10:20;15.50;50.30
56729;DHT22;42612;52.232;7.560;2022-11-14T16:12:47;15.50;50.40
56729;DHT22;42612;52.232;7.560;2022-11-14T16:15:13;15.50;50.40
56729;DHT22;42612;52.232;7.560;2022-11-14T16:17:40;15.40;50.40
56729;DHT22;42612;52.232;7.560;2022-11-14T16:20:10;15.40;50.40
56729;DHT22;42612;52.232;7.560;2022-11-14T16:22:41;15.30;50.40
56729;DHT22;42612;52.232;7.560;2022-11-14T16:25:11;15.30;50.50
56729;DHT22;42612;52.232;7.560;2022-11-14T16:27:44;15.20;50.60
56729;DHT22;42612;52.232;7.560;2022-11-14T16:30:10;15.20;50.60
56729;DHT22;42612;52.232;7.560;2022-11-14T16:32:38;15.20;50.70
56729;DHT22;42612;52.232;7.560;2022-11-14T16:35:05;15.20;50.70
56729;DHT22;42612;52.232;7.560;2022-11-14T16:37:33;15.10;50.70
56729;DHT22;42612;52.232;7.560;2022-11-14T16:39:59;15.10;50.80
56729;DHT22;42612;52.232;7.560;2022-11-14T16:42:24;15.10;50.90
56729;DHT22;42612;52.232;7.560;2022-11-14T16:44:50;15.00;50.80
56729;DHT22;42612;52.232;7.560;2022-11-14T16:47:16;15.00;51.00
56729;DHT22;42612;52.232;7.560;2022-11-14T16:49:42;15.00;51.00
56729;DHT22;42612;52.232;7.560;2022-11-14T16:52:09;14.90;50.90
56729;DHT22;42612;52.232;7.560;2022-11-14T16:54:35;14.90;51.00
56729;DHT22;42612;52.232;7.560;2022-11-14T16:57:00;14.90;51.10
56729;DHT22;42612;52.232;7.560;2022-11-14T16:59:26;14.90;51.20
56729;DHT22;42612;52.232;7.560;2022-11-14T17:01:51;14.90;51.20
56729;DHT22;42612;52.232;7.560;2022-11-14T17:04:17;14.80;51.20
56729;DHT22;42612;52.232;7.560;2022-11-14T17:06:43;14.80;51.30
56729;DHT22;42612;52.232;7.560;2022-11-14T17:09:10;14.80;51.30
56729;DHT22;42612;52.232;7.560;2022-11-14T17:11:36;14.80;51.40
56729;DHT22;42612;52.232;7.560;2022-11-14T17:14:01;14.80;51.50
56729;DHT22;42612;52.232;7.560;2022-11-14T17:16:27;14.80;51.50
56729;DHT22;42612;52.232;7.560;2022-11-14T17:18:53;14.80;51.50
56729;DHT22;42612;52.232;7.560;2022-11-14T17:21:19;14.80;51.50
56729;DHT22;42612;52.232;7.560;2022-11-14T17:23:45;14.80;51.50